Time;durP1;ratioP1;P1;durP2;ratioP2;P2;SDS_P1;SDS_P2;PMS_P1;PMS_P2;Temp;Humidity;BMP_temperature;BMP_pressure;BME280_temperature;BME280_humidity;BME280_pressure;Samples;Min_cycle;Max_cycle;Signal;HPM_P1;HPM_P2
2021/07/09 00:02:36;;;;;;;6.08;5.37;;;;;;;17.92;86.72;100174.42;1699174;84;21863;-66
2021/07/09 00:05:04;;;;;;;9.30;5.35;;;;;;;17.87;86.27;100173.38;1698958;84;20946;-66
2021/07/09 00:07:30;;;;;;;13.08;5.40;;;;;;;17.83;86.61;100172.33;1698944;83;20966;-66
2021/07/09 00:09:56;;;;;;;8.43;5.85;;;;;;;17.80;86.95;100166.77;1699052;84;20999;-66
2021/07/09 00:12:24;;;;;;;8.13;5.53;;;;;;;17.78;87.54;100172.63;1699001;84;21022;-66
2021/07/09 00:14:51;;;;;;;7.60;6.42;;;;;;;17.76;88.07;100163.13;1699105;84;21860;-66
2021/07/09 00:17:17;;;;;;;6.60;5.33;;;;;;;17.74;87.95;100161.91;1698941;84;20959;-66
2021/07/09 00:19:44;;;;;;;6.72;5.15;;;;;;;17.73;87.98;100163.30;1699092;84;21037;-67
2021/07/09 00:22:12;;;;;;;9.88;4.67;;;;;;;17.73;87.98;100162.84;1699167;84;21427;-66
2021/07/09 00:24:39;;;;;;;6.10;5.08;;;;;;;17.74;88.08;100167.63;1698941;84;21006;-66
2021/07/09 00:27:06;;;;;;;7.58;5.30;;;;;;;17.72;87.55;100161.61;1698935;84;21098;-66
2021/07/09 00:29:33;;;;;;;8.78;5.65;;;;;;;17.69;87.33;100162.64;1699106;84;21117;-66
2021/07/09 00:32:00;;;;;;;8.38;5.60;;;;;;;17.67;87.32;100158.40;1704404;83;20970;-66
2021/07/09 00:34:27;;;;;;;9.30;5.25;;;;;;;17.64;87.28;100153.28;1708808;84;21529;-66
2021/07/09 00:36:55;;;;;;;6.28;5.03;;;;;;;17.60;87.13;100152.61;1708864;84;21041;-66
2021/07/09 00:39:21;;;;;;;7.47;5.37;;;;;;;17.58;87.24;100152.36;1708775;84;21193;-66
2021/07/09 00:41:48;;;;;;;7.33;5.50;;;;;;;17.53;87.21;100148.68;1708943;84;21478;-66
2021/07/09 00:44:15;;;;;;;6.37;4.70;;;;;;;17.49;87.15;100149.32;1708759;84;20977;-66
2021/07/09 00:46:42;;;;;;;8.13;4.70;;;;;;;17.47;87.09;100147.72;1708704;84;20970;-66
2021/07/09 00:49:11;;;;;;;6.70;4.65;;;;;;;17.44;86.91;100150.52;1708845;82;21009;-66
2021/07/09 00:51:38;;;;;;;6.95;5.00;;;;;;;17.40;86.67;100154.27;1708749;82;21093;-66
2021/07/09 00:54:05;;;;;;;10.68;5.50;;;;;;;17.36;86.63;100156.72;1708662;82;21058;-66
2021/07/09 00:56:31;;;;;;;6.37;4.80;;;;;;;17.30;86.54;100150.02;1708794;82;21005;-66
2021/07/09 00:59:00;;;;;;;6.85;4.85;;;;;;;17.27;86.48;100159.40;1708746;84;21015;-66
2021/07/09 01:01:27;;;;;;;6.67;5.00;;;;;;;17.24;86.38;100156.94;1708782;84;21057;-66
2021/07/09 01:03:53;;;;;;;5.58;4.95;;;;;;;17.19;86.53;100152.41;1708741;82;21072;-66
2021/07/09 01:06:21;;;;;;;10.80;5.75;;;;;;;17.15;86.33;100150.45;1681038;84;20918;-66
2021/07/09 01:08:47;;;;;;;5.45;4.95;;;;;;;17.07;86.72;100157.92;1708722;84;21006;-66
2021/07/09 01:11:14;;;;;;;5.83;4.70;;;;;;;17.07;86.72;100157.92;1708810;82;21096;-66
2021/07/09 01:13:42;;;;;;;6.75;5.08;;;;;;;17.05;86.79;100155.00;1708802;84;20950;-66
2021/07/09 01:16:12;;;;;;;7.10;5.20;;;;;;;17.02;86.76;100159.11;1708750;84;21142;-66
2021/07/09 01:18:39;;;;;;;5.62;5.12;;;;;;;16.99;86.68;100160.59;1708972;84;20959;-66
2021/07/09 01:21:09;;;;;;;15.30;5.20;;;;;;;16.96;86.67;100158.16;1708738;84;21005;-66
2021/07/09 01:23:37;;;;;;;7.28;5.00;;;;;;;16.93;86.50;100149.98;1708965;83;21066;-66
2021/07/09 01:26:05;;;;;;;6.12;4.80;;;;;;;16.90;86.68;100151.47;1708932;84;20942;-66
2021/07/09 01:28:32;;;;;;;6.28;5.50;;;;;;;16.88;86.90;100155.49;1708757;84;21893;-66
2021/07/09 01:30:58;;;;;;;8.73;5.50;;;;;;;16.86;87.11;100157.36;1708840;83;21497;-66
2021/07/09 01:33:25;;;;;;;8.10;4.58;;;;;;;16.83;86.92;100154.05;1693018;84;21022;-66
2021/07/09 01:35:53;;;;;;;12.00;5.92;;;;;;;16.81;87.26;100153.28;1705183;84;20967;-66
2021/07/09 01:38:19;;;;;;;5.20;4.42;;;;;;;16.79;87.14;100149.43;1710039;83;21034;-66
2021/07/09 01:40:46;;;;;;;6.83;5.22;;;;;;;16.77;87.10;100151.79;1710099;84;23291;-66
2021/07/09 01:43:12;;;;;;;8.60;5.55;;;;;;;16.73;86.91;100144.55;1709963;84;20963;-66
2021/07/09 01:45:39;;;;;;;6.95;4.75;;;;;;;16.72;86.97;100146.78;1709992;84;21523;-66
2021/07/09 01:48:05;;;;;;;8.38;4.85;;;;;;;16.71;86.94;100148.19;1710031;84;21061;-66
2021/07/09 01:50:33;;;;;;;7.72;5.67;;;;;;;16.69;87.54;100148.73;1710248;83;21458;-66
2021/07/09 01:53:02;;;;;;;6.28;4.97;;;;;;;16.68;88.07;100151.83;1710011;84;21182;-66
2021/07/09 01:55:28;;;;;;;6.05;5.45;;;;;;;16.67;88.39;100147.97;1710001;84;21018;-66
2021/07/09 01:57:55;;;;;;;9.10;5.17;;;;;;;16.67;89.37;100148.81;1710134;83;20990;-66
2021/07/09 02:00:24;;;;;;;7.75;4.87;;;;;;;16.67;89.37;100148.81;1709927;84;20982;-66
2021/07/09 02:02:51;;;;;;;10.00;5.22;;;;;;;16.67;88.73;100147.50;1709987;84;21014;-66
2021/07/09 02:05:20;;;;;;;8.55;5.50;;;;;;;16.68;88.57;100144.41;1709933;84;21170;-66
2021/07/09 02:07:49;;;;;;;5.55;4.50;;;;;;;16.67;88.89;100139.63;1710207;82;21487;-66
2021/07/09 02:10:18;;;;;;;7.78;4.80;;;;;;;16.69;89.12;100141.70;1710195;83;21523;-66
2021/07/09 02:12:44;;;;;;;6.17;3.90;;;;;;;16.71;89.29;100142.93;1709906;84;21069;-67
2021/07/09 02:15:14;;;;;;;5.10;4.47;;;;;;;16.72;88.17;100144.63;1710262;83;21420;-66
2021/07/09 02:17:43;;;;;;;7.60;5.22;;;;;;;16.70;87.57;100138.14;1709887;84;20998;-66
2021/07/09 02:20:14;;;;;;;7.92;4.85;;;;;;;16.78;87.42;100145.60;1709856;83;20955;-66
2021/07/09 02:22:40;;;;;;;7.92;4.70;;;;;;;16.88;87.24;100141.05;1709988;84;21446;-66
2021/07/09 02:25:09;;;;;;;6.05;4.95;;;;;;;17.08;86.84;100145.63;1709921;83;20998;-66
2021/07/09 02:27:37;;;;;;;9.83;5.17;;;;;;;17.32;86.05;100152.09;1709937;84;21077;-66
2021/07/09 02:30:08;;;;;;;7.42;5.35;;;;;;;17.60;85.10;100154.40;1710017;83;21451;-66
2021/07/09 02:32:38;;;;;;;8.03;5.55;;;;;;;17.89;83.97;100147.81;1706708;83;21034;-66
2021/07/09 02:35:06;;;;;;;7.15;5.20;;;;;;;18.23;83.14;100143.94;1704334;84;21023;-66
2021/07/09 02:37:33;;;;;;;8.30;5.60;;;;;;;18.57;82.62;100137.41;1704192;84;20968;-66
2021/07/09 02:39:59;;;;;;;5.53;4.47;;;;;;;18.97;81.67;100141.45;1704144;84;20964;-66
2021/07/09 02:42:27;;;;;;;8.68;5.03;;;;;;;19.33;79.41;100143.45;1704217;83;21472;-66
2021/07/09 02:44:54;;;;;;;6.58;5.33;;;;;;;19.65;77.54;100142.61;1704018;84;21618;-66
2021/07/09 02:47:20;;;;;;;7.97;5.45;;;;;;;20.00;76.59;100137.53;1704079;82;21003;-66
2021/07/09 02:49:47;;;;;;;11.10;5.50;;;;;;;20.39;75.33;100140.51;1711304;83;21013;-66
2021/07/09 02:52:13;;;;;;;8.30;5.47;;;;;;;20.80;74.26;100136.67;1710975;84;21410;-66
2021/07/09 02:54:41;;;;;;;8.20;5.53;;;;;;;21.22;73.47;100131.36;1710986;84;20990;-66
2021/07/09 02:57:08;;;;;;;8.13;4.95;;;;;;;21.66;70.91;100138.11;1710880;84;20985;-66
2021/07/09 02:59:35;;;;;;;6.60;5.10;;;;;;;22.04;68.33;100137.44;1711053;82;32648;-66
2021/07/09 03:02:03;;;;;;;5.25;4.10;;;;;;;22.39;66.12;100128.02;1710948;82;20966;-66
2021/07/09 03:04:30;;;;;;;6.03;5.33;;;;;;;22.73;64.74;100131.47;1711264;84;21442;-66
2021/07/09 03:06:58;;;;;;;6.80;5.15;;;;;;;23.04;63.69;100133.31;1711029;84;21478;-68
2021/07/09 03:09:25;;;;;;;8.23;5.62;;;;;;;23.38;63.01;100124.72;1710869;84;21092;-67
2021/07/09 03:11:53;;;;;;;7.62;5.15;;;;;;;23.68;62.21;100131.92;1711087;84;21459;-66
2021/07/09 03:14:20;;;;;;;5.42;4.80;;;;;;;24.03;61.22;100134.19;1711007;82;20970;-67
2021/07/09 03:16:46;;;;;;;6.10;4.55;;;;;;;24.42;59.33;100139.19;1711047;84;20986;-67
2021/07/09 03:19:13;;;;;;;9.00;5.05;;;;;;;24.79;57.93;100134.08;1710953;84;23296;-67
2021/07/09 03:21:39;;;;;;;7.90;4.80;;;;;;;25.17;56.84;100137.80;1710973;84;20939;-67
2021/07/09 03:24:06;;;;;;;9.73;6.00;;;;;;;25.55;55.87;100133.77;1711012;82;21034;-66
2021/07/09 03:26:33;;;;;;;12.65;5.67;;;;;;;25.96;54.99;100129.89;1710948;82;20970;-67
2021/07/09 03:29:00;;;;;;;6.40;5.03;;;;;;;26.38;54.10;100130.27;1710963;84;20966;-67
2021/07/09 03:31:28;;;;;;;10.60;4.90;;;;;;;26.78;52.91;100132.23;1710953;83;21113;-67
2021/07/09 03:33:54;;;;;;;7.17;4.75;;;;;;;27.09;51.38;100129.05;1720955;83;21302;-67
2021/07/09 03:36:21;;;;;;;18.00;6.08;;;;;;;27.40;50.38;100125.45;1692798;84;20946;-66
2021/07/09 03:38:49;;;;;;;8.25;5.00;;;;;;;27.69;49.54;100123.03;1705207;84;21499;-67
2021/07/09 03:41:15;;;;;;;5.55;4.78;;;;;;;28.01;48.95;100125.03;1705119;84;21062;-67
2021/07/09 03:43:44;;;;;;;8.60;5.37;;;;;;;28.36;47.77;100131.59;1705315;84;20943;-67
2021/07/09 03:46:10;;;;;;;7.75;5.20;;;;;;;28.62;46.77;100134.16;1705126;84;20944;-67
2021/07/09 03:48:37;;;;;;;6.45;4.87;;;;;;;28.80;46.25;100129.55;1705197;84;21011;-67
2021/07/09 03:51:05;;;;;;;5.42;4.87;;;;;;;28.97;45.98;100129.09;1705179;82;20955;-67
2021/07/09 03:53:31;;;;;;;10.03;5.70;;;;;;;29.23;45.55;100130.27;1705147;84;20947;-67
2021/07/09 03:56:00;;;;;;;9.85;5.72;;;;;;;29.53;44.92;100131.47;1705174;84;21078;-67
2021/07/09 03:58:26;;;;;;;8.13;5.72;;;;;;;29.77;44.32;100130.09;1705176;84;20983;-67
2021/07/09 04:00:53;;;;;;;7.45;5.25;;;;;;;30.02;43.77;100135.39;1705192;82;20947;-67
2021/07/09 04:03:19;;;;;;;9.28;5.50;;;;;;;30.21;43.31;100131.47;1705081;84;20991;-67
2021/07/09 04:05:45;;;;;;;9.85;6.03;;;;;;;30.41;42.89;100140.77;1705114;84;21010;-67
2021/07/09 04:08:12;;;;;;;7.75;5.30;;;;;;;30.60;42.29;100136.34;1705126;84;21102;-67
2021/07/09 04:10:40;;;;;;;9.60;5.45;;;;;;;30.72;42.08;100138.98;1705118;84;21419;-66
2021/07/09 04:13:06;;;;;;;11.35;6.25;;;;;;;30.88;42.12;100142.05;1705245;84;21004;-67
2021/07/09 04:15:32;;;;;;;9.55;5.75;;;;;;;31.13;41.92;100135.53;1705215;84;21068;-68
2021/07/09 04:17:59;;;;;;;7.78;5.60;;;;;;;31.49;41.21;100146.98;1705292;84;21035;-66
2021/07/09 04:20:25;;;;;;;7.22;5.37;;;;;;;31.84;40.31;100141.45;1705066;84;21491;-67
2021/07/09 04:22:56;;;;;;;6.00;5.40;;;;;;;32.03;39.67;100147.62;1704983;84;20936;-66
2021/07/09 04:25:22;;;;;;;6.85;5.15;;;;;;;32.15;39.17;100143.46;1705070;84;21429;-66
2021/07/09 04:27:49;;;;;;;7.42;5.20;;;;;;;32.34;38.93;100142.59;1705363;84;21043;-67
2021/07/09 04:30:16;;;;;;;7.20;5.60;;;;;;;32.54;38.06;100140.97;1705232;84;21491;-67
2021/07/09 04:32:42;;;;;;;10.32;6.22;;;;;;;32.64;38.03;100138.80;1694938;84;21054;-66
2021/07/09 04:35:10;;;;;;;8.15;5.60;;;;;;;32.75;37.83;100140.20;1672768;84;21071;-66
2021/07/09 04:37:36;;;;;;;10.08;5.80;;;;;;;32.91;36.90;100140.47;1672947;85;21027;-66
2021/07/09 04:40:04;;;;;;;10.48;6.85;;;;;;;33.04;36.54;100144.64;1673071;85;20979;-66
2021/07/09 04:42:31;;;;;;;7.87;7.17;;;;;;;33.12;36.82;100144.52;1673100;85;20987;-66
2021/07/09 04:44:57;;;;;;;8.80;6.87;;;;;;;33.08;37.05;100142.72;1673114;85;21129;-66
2021/07/09 04:47:25;;;;;;;8.85;8.00;;;;;;;33.04;37.06;100137.90;1672877;85;21100;-66
2021/07/09 04:49:53;;;;;;;8.95;8.15;;;;;;;33.07;37.21;100135.66;1672901;85;20919;-66
2021/07/09 04:52:20;;;;;;;8.75;7.90;;;;;;;33.26;37.06;100145.50;1672909;85;21031;-66
2021/07/09 04:54:46;;;;;;;10.23;9.13;;;;;;;33.43;36.79;100142.84;1673067;85;21011;-66
2021/07/09 04:57:13;;;;;;;10.78;9.85;;;;;;;33.51;36.74;100145.41;1673205;85;21838;-66
2021/07/09 04:59:39;;;;;;;9.83;8.48;;;;;;;33.49;37.11;100144.77;1672928;85;20971;-66
2021/07/09 05:02:06;;;;;;;10.65;8.85;;;;;;;33.57;37.04;100139.75;1670538;84;21031;-66
2021/07/09 05:04:33;;;;;;;10.82;7.50;;;;;;;33.74;36.84;100133.02;1671826;84;21070;-66
2021/07/09 05:07:01;;;;;;;9.65;7.75;;;;;;;33.92;36.56;100132.54;1673036;84;20947;-66
2021/07/09 05:09:27;;;;;;;6.90;6.30;;;;;;;34.08;36.25;100136.26;1673219;85;21801;-66
2021/07/09 05:11:54;;;;;;;7.92;6.87;;;;;;;34.27;36.20;100138.22;1672824;85;21027;-66
2021/07/09 05:14:22;;;;;;;7.35;6.45;;;;;;;34.09;36.31;100136.06;1652520;85;21072;-67
2021/07/09 05:16:48;;;;;;;6.97;6.15;;;;;;;33.77;36.99;100135.33;1640485;87;21533;-66
2021/07/09 05:19:15;;;;;;;7.95;7.00;;;;;;;33.55;37.13;100135.91;1643688;87;21182;-66
2021/07/09 05:21:41;;;;;;;6.47;5.80;;;;;;;33.40;37.71;100133.27;1643685;87;21795;-67
2021/07/09 05:24:11;;;;;;;6.72;6.10;;;;;;;33.51;36.84;100131.41;1643701;86;21074;-66
2021/07/09 05:26:37;;;;;;;8.28;6.97;;;;;;;33.77;36.27;100135.33;1643903;87;21010;-68
2021/07/09 05:29:04;;;;;;;7.37;6.05;;;;;;;34.06;35.78;100128.87;1643625;87;20974;-67
2021/07/09 05:31:33;;;;;;;9.68;5.80;;;;;;;34.27;35.50;100127.42;1643403;87;21002;-66
2021/07/09 05:34:00;;;;;;;13.70;6.25;;;;;;;34.43;35.53;100125.75;1653411;84;21074;-66
2021/07/09 05:36:26;;;;;;;8.23;5.08;;;;;;;34.69;35.25;100124.17;1657653;86;21572;-66
2021/07/09 05:38:54;;;;;;;11.90;5.95;;;;;;;34.92;34.50;100122.48;1657860;86;20965;-66
2021/07/09 05:41:21;;;;;;;8.88;4.95;;;;;;;35.10;33.85;100122.72;1657749;86;21017;-66
2021/07/09 05:43:47;;;;;;;9.25;6.70;;;;;;;35.21;33.07;100124.27;1657891;86;21520;-66
2021/07/09 05:46:14;;;;;;;4.40;3.75;;;;;;;35.19;32.22;100126.34;1657697;86;21158;-66
2021/07/09 05:48:41;;;;;;;7.45;4.22;;;;;;;35.18;32.24;100125.20;1657694;85;20954;-66
2021/07/09 05:51:07;;;;;;;6.45;2.75;;;;;;;35.19;31.77;100131.75;1656996;86;21597;-67
2021/07/09 05:53:34;;;;;;;5.67;2.90;;;;;;;35.20;30.95;100127.17;1657453;86;20982;-66
2021/07/09 05:56:01;;;;;;;5.05;3.27;;;;;;;35.01;31.24;100119.88;1657846;86;20990;-67
2021/07/09 05:58:28;;;;;;;4.45;2.70;;;;;;;34.82;31.58;100125.58;1657335;86;21164;-66
2021/07/09 06:00:54;;;;;;;3.67;2.75;;;;;;;34.75;31.30;100117.44;1657720;86;21068;-66
2021/07/09 06:03:21;;;;;;;7.30;3.35;;;;;;;34.63;31.71;100116.36;1657626;85;21481;-66
2021/07/09 06:05:48;;;;;;;4.80;2.75;;;;;;;34.35;31.86;100114.30;1657784;86;21021;-68
2021/07/09 06:08:15;;;;;;;5.45;2.50;;;;;;;34.09;30.71;100117.16;1657758;86;21124;-67
2021/07/09 06:10:41;;;;;;;14.68;3.00;;;;;;;33.91;30.34;100114.68;1657804;86;21072;-67
2021/07/09 06:13:09;;;;;;;4.58;2.50;;;;;;;33.70;30.29;100115.05;1657742;86;21501;-67
2021/07/09 06:15:36;;;;;;;5.37;2.33;;;;;;;33.47;30.51;100117.99;1657756;85;20989;-67
2021/07/09 06:18:02;;;;;;;3.60;2.80;;;;;;;33.25;30.61;100120.88;1657632;85;20965;-66
2021/07/09 06:20:28;;;;;;;4.00;2.55;;;;;;;33.04;30.55;100117.17;1657975;86;21457;-67
2021/07/09 06:22:55;;;;;;;2.95;2.35;;;;;;;32.88;31.05;100116.09;1657700;86;21114;-67
2021/07/09 06:25:21;;;;;;;4.10;2.08;;;;;;;32.68;30.85;100113.67;1657758;85;20974;-67
2021/07/09 06:27:48;;;;;;;5.60;2.40;;;;;;;32.48;31.37;100111.59;1657658;86;21021;-66
2021/07/09 06:30:15;;;;;;;3.52;2.22;;;;;;;32.36;32.15;100113.12;1657677;86;21025;-66
2021/07/09 06:32:42;;;;;;;4.35;2.35;;;;;;;32.22;32.63;100117.16;1657633;85;21450;-66
2021/07/09 06:35:09;;;;;;;3.25;2.47;;;;;;;32.10;32.48;100110.88;1657625;85;21313;-65
2021/07/09 06:37:37;;;;;;;3.40;2.50;;;;;;;32.06;32.51;100110.09;1657596;86;21036;-66
2021/07/09 06:40:06;;;;;;;2.37;2.17;;;;;;;31.93;32.89;100117.48;1657696;85;20977;-66
2021/07/09 06:42:33;;;;;;;5.97;2.22;;;;;;;31.71;32.37;100116.55;1657754;85;21044;-66
2021/07/09 06:44:59;;;;;;;8.88;2.85;;;;;;;31.47;32.47;100115.41;1657739;85;21073;-67
2021/07/09 06:47:25;;;;;;;9.95;2.85;;;;;;;31.23;33.23;100107.56;1657731;86;21121;-66
2021/07/09 06:49:52;;;;;;;7.70;2.37;;;;;;;31.08;33.12;100103.46;1657922;86;20993;-69
2021/07/09 06:52:18;;;;;;;4.12;1.90;;;;;;;30.95;33.63;100101.39;1657695;86;21001;-65
2021/07/09 06:54:45;;;;;;;5.20;3.67;;;;;;;30.80;33.85;100105.84;1657526;86;21100;-65
2021/07/09 06:57:12;;;;;;;6.05;2.40;;;;;;;30.52;34.63;100098.79;1657880;85;21493;-66
2021/07/09 06:59:38;;;;;;;2.72;1.87;;;;;;;30.29;34.95;100101.42;1657649;86;23304;-66
2021/07/09 07:02:05;;;;;;;3.67;2.08;;;;;;;30.10;34.62;100099.16;1657613;86;20978;-65
2021/07/09 07:04:31;;;;;;;7.85;2.00;;;;;;;29.93;34.36;100101.55;1657611;85;20969;-66
2021/07/09 07:06:57;;;;;;;3.65;2.50;;;;;;;29.78;35.05;100101.41;1657690;86;21025;-66
2021/07/09 07:09:24;;;;;;;5.15;2.40;;;;;;;29.55;35.86;100101.81;1657946;86;21006;-66
2021/07/09 07:11:50;;;;;;;3.47;2.05;;;;;;;29.38;36.83;100093.74;1657601;86;21275;-66
2021/07/09 07:14:17;;;;;;;6.25;4.15;;;;;;;29.28;35.89;100094.94;1632785;86;21029;-67
2021/07/09 07:16:45;;;;;;;8.58;2.27;;;;;;;29.19;35.88;100098.11;1657791;86;21020;-66
2021/07/09 07:19:11;;;;;;;5.80;2.42;;;;;;;29.16;34.85;100094.95;1657849;86;20977;-67
2021/07/09 07:21:40;;;;;;;6.70;2.20;;;;;;;29.11;35.02;100092.77;1674624;85;21055;-66
2021/07/09 07:24:06;;;;;;;7.70;2.83;;;;;;;29.12;34.56;100099.80;1698239;84;22015;-67
2021/07/09 07:26:32;;;;;;;6.12;2.80;;;;;;;29.14;33.95;100098.64;1655418;85;21654;-66
2021/07/09 07:29:00;;;;;;;1.77;1.67;;;;;;;29.18;33.37;100096.44;1673076;85;20997;-66
2021/07/09 07:31:27;;;;;;;3.05;1.55;;;;;;;29.19;32.98;100091.91;1656419;86;21636;-67
2021/07/09 07:33:54;;;;;;;1.92;1.37;;;;;;;29.18;32.22;100094.29;1667267;84;20999;-67
2021/07/09 07:36:20;;;;;;;2.27;1.72;;;;;;;29.17;32.43;100089.43;1641900;87;21475;-67
2021/07/09 07:38:47;;;;;;;3.27;2.05;;;;;;;29.21;32.49;100088.56;1658553;86;21582;-67
2021/07/09 07:41:15;;;;;;;4.35;1.70;;;;;;;29.25;32.10;100081.88;1642257;86;21010;-67
2021/07/09 07:43:43;;;;;;;3.95;2.52;;;;;;;29.23;32.74;100086.56;1670665;84;21018;-66
2021/07/09 07:46:10;;;;;;;5.17;2.30;;;;;;;29.21;32.16;100084.55;1658671;86;21435;-67
2021/07/09 07:48:39;;;;;;;3.05;1.77;;;;;;;29.21;31.56;100087.23;1642082;87;21176;-67
2021/07/09 07:51:07;;;;;;;3.92;1.47;;;;;;;29.21;31.02;100081.87;1670484;84;21670;-67
2021/07/09 07:53:37;;;;;;;5.65;1.42;;;;;;;29.21;30.89;100083.21;1658699;85;21455;-66
2021/07/09 07:56:06;;;;;;;5.55;1.60;;;;;;;29.20;31.12;100070.81;1642109;87;21462;-66
2021/07/09 07:58:32;;;;;;;4.70;1.62;;;;;;;29.22;31.17;100071.49;1658954;86;20990;-67
2021/07/09 08:01:00;;;;;;;2.27;1.65;;;;;;;29.25;31.01;100068.48;1642040;87;21160;-66
2021/07/09 08:03:28;;;;;;;5.03;1.70;;;;;;;29.26;30.85;100065.63;1658491;85;21047;-67
2021/07/09 08:05:55;;;;;;;3.10;1.60;;;;;;;29.27;31.23;100067.81;1642025;87;21097;-66
2021/07/09 08:08:21;;;;;;;2.12;1.55;;;;;;;29.28;30.89;100064.97;1658707;86;20987;-66
2021/07/09 08:10:48;;;;;;;5.60;2.00;;;;;;;29.23;31.18;100079.36;1642381;87;21569;-66
2021/07/09 08:13:16;;;;;;;6.22;1.57;;;;;;;29.12;31.84;100073.02;1658645;86;21195;-66
2021/07/09 08:15:43;;;;;;;4.72;1.50;;;;;;;29.07;32.00;100072.67;1642085;87;21438;-65
2021/07/09 08:18:09;;;;;;;4.12;2.45;;;;;;;29.09;32.03;100070.17;1658687;85;21070;-66
2021/07/09 08:20:37;;;;;;;5.80;1.75;;;;;;;29.12;31.62;100061.80;1642074;87;20975;-66
2021/07/09 08:23:04;;;;;;;2.22;1.45;;;;;;;29.15;31.89;100057.95;1658770;86;21502;-66
2021/07/09 08:25:30;;;;;;;10.55;1.70;;;;;;;29.18;31.48;100064.28;1670736;86;23323;-66
2021/07/09 08:27:57;;;;;;;4.65;1.72;;;;;;;29.16;31.39;100053.44;1658553;86;21078;-66
2021/07/09 08:30:23;;;;;;;5.20;1.67;;;;;;;29.13;32.27;100060.80;1642033;87;21018;-66
2021/07/09 08:32:49;;;;;;;3.85;1.80;;;;;;;29.19;32.07;100063.78;1658643;86;21022;-66
2021/07/09 08:35:16;;;;;;;3.12;1.77;;;;;;;29.26;31.33;100058.09;1649716;86;21469;-66
2021/07/09 08:37:42;;;;;;;3.67;1.95;;;;;;;29.30;31.20;100056.76;1668102;84;21143;-67
2021/07/09 08:40:10;;;;;;;2.45;1.60;;;;;;;29.31;31.36;100053.08;1668130;86;21070;-67
2021/07/09 08:42:38;;;;;;;6.28;1.90;;;;;;;29.29;31.43;100053.74;1668182;84;21510;-67
2021/07/09 08:45:06;;;;;;;4.37;1.80;;;;;;;29.24;31.71;100054.24;1668077;86;21100;-66
2021/07/09 08:47:34;;;;;;;4.37;2.42;;;;;;;29.23;30.83;100050.39;1668251;84;21124;-66
2021/07/09 08:50:06;;;;;;;7.72;2.25;;;;;;;29.21;31.17;100041.19;1668329;86;21140;-67
2021/07/09 08:52:36;;;;;;;2.87;2.30;;;;;;;29.23;31.85;100050.39;1668249;86;20991;-66
2021/07/09 08:55:11;;;;;;;7.25;3.20;;;;;;;29.24;32.57;100048.89;1668139;86;21030;-66
2021/07/09 08:57:35;;;;;;;3.55;1.87;;;;;;;29.30;32.14;100052.73;1667872;85;21041;-66
2021/07/09 09:00:06;;;;;;;2.70;1.70;;;;;;;29.32;31.39;100051.56;1668027;86;21058;-65
2021/07/09 09:02:32;;;;;;;5.10;1.80;;;;;;;29.30;31.60;100045.54;1668112;86;21108;-66
2021/07/09 09:04:59;;;;;;;3.40;1.95;;;;;;;29.29;31.33;100044.37;1668175;86;21034;-66
2021/07/09 09:07:29;;;;;;;6.00;2.20;;;;;;;29.27;32.02;100041.86;1668126;86;21600;-66
2021/07/09 09:09:56;;;;;;;7.12;1.95;;;;;;;29.26;31.91;100045.54;1668143;86;21548;-66
2021/07/09 09:12:22;;;;;;;5.85;2.10;;;;;;;29.30;32.04;100040.18;1667982;86;20995;-65
2021/07/09 09:14:51;;;;;;;2.12;1.50;;;;;;;29.37;32.05;100028.29;1667932;86;21210;-66
2021/07/09 09:17:31;;;;;;;7.53;1.95;;;;;;;29.44;31.76;100030.63;1667990;86;21030;-67
2021/07/09 09:20:11;;;;;;;3.85;2.10;;;;;;;29.46;31.77;100025.94;1668216;86;21175;-66
2021/07/09 09:22:55;;;;;;;4.55;2.20;;;;;;;29.45;31.30;100034.98;1684224;83;21469;-66
2021/07/09 09:25:26;;;;;;;2.17;1.80;;;;;;;29.45;31.60;100030.45;1697055;84;21065;-66
2021/07/09 09:28:05;;;;;;;2.33;1.82;;;;;;;29.53;31.36;100035.48;1698165;84;21118;-66
2021/07/09 09:30:33;;;;;;;6.00;2.10;;;;;;;29.49;31.44;100017.56;1701743;84;21415;-66
2021/07/09 09:33:05;;;;;;;8.55;2.17;;;;;;;29.48;31.65;100018.56;1701525;84;21014;-66
2021/07/09 09:35:37;;;;;;;6.23;1.90;;;;;;;29.50;32.21;100019.73;1704237;83;21041;-65
2021/07/09 09:38:07;;;;;;;4.87;2.33;;;;;;;29.50;32.43;100019.23;1704867;84;21002;-66
2021/07/09 09:40:35;;;;;;;9.15;2.20;;;;;;;29.51;32.26;100011.52;1704726;84;21128;-66
2021/07/09 09:43:08;;;;;;;1.87;1.75;;;;;;;29.51;31.84;100004.83;1704534;84;21466;-65
2021/07/09 09:45:36;;;;;;;5.45;2.20;;;;;;;29.52;32.29;100007.84;1704570;84;21085;-66
2021/07/09 09:48:09;;;;;;;7.12;2.22;;;;;;;29.57;32.39;100006.83;1704697;84;21073;-65
2021/07/09 09:50:50;;;;;;;3.47;1.95;;;;;;;29.63;32.06;100000.75;1704770;84;21098;-66
2021/07/09 09:53:33;;;;;;;3.75;1.90;;;;;;;29.73;31.84;100005.42;1704781;84;21481;-66
2021/07/09 09:56:06;;;;;;;;;;;;;;;29.81;31.98;99995.98;1707303;84;21042;-66
2021/07/09 09:58:34;;;;;;;3.35;1.85;;;;;;;29.82;32.08;99997.66;1704865;84;20430;-66
2021/07/09 10:01:00;;;;;;;5.97;2.47;;;;;;;29.82;31.90;99988.77;1704355;84;21010;-67
2021/07/09 10:03:26;;;;;;;7.78;1.87;;;;;;;29.82;31.77;99988.27;1704588;84;21014;-67
2021/07/09 10:05:53;;;;;;;5.95;2.20;;;;;;;29.86;32.05;99987.42;1704912;84;21107;-67
2021/07/09 10:08:24;;;;;;;3.58;1.92;;;;;;;29.91;31.98;99985.05;1704518;84;20958;-67
2021/07/09 10:10:51;;;;;;;2.65;2.10;;;;;;;29.98;31.76;99981.17;1704905;83;21042;-67
2021/07/09 10:13:20;;;;;;;10.72;2.70;;;;;;;30.03;31.76;99980.98;1704643;84;20990;-67
2021/07/09 10:15:53;;;;;;;11.20;2.98;;;;;;;30.09;32.00;99984.82;1704890;84;21505;-66
2021/07/09 10:18:20;;;;;;;4.00;1.90;;;;;;;30.09;32.40;99982.97;1704832;84;26155;-66
2021/07/09 10:20:47;;;;;;;3.50;1.75;;;;;;;30.13;31.88;99976.75;1704444;84;21009;-67
2021/07/09 10:23:19;;;;;;;3.27;1.62;;;;;;;30.14;31.30;99980.60;1704514;84;20970;-66
2021/07/09 10:25:47;;;;;;;1.85;1.40;;;;;;;30.13;30.68;99977.59;1704850;84;21517;-67
2021/07/09 10:28:22;;;;;;;2.22;1.60;;;;;;;30.16;30.76;99977.75;1704660;84;20942;-67
2021/07/09 10:30:49;;;;;;;1.82;1.47;;;;;;;30.17;30.71;99970.03;1704903;84;21074;-66
2021/07/09 10:33:34;;;;;;;2.85;1.60;;;;;;;30.16;30.71;99965.67;1704505;84;21052;-66
2021/07/09 10:36:09;;;;;;;5.35;1.52;;;;;;;30.14;30.52;99960.48;1697021;83;21022;-66
2021/07/09 10:38:41;;;;;;;5.22;2.05;;;;;;;30.10;30.28;99959.67;1690484;84;21069;-66
2021/07/09 10:41:22;;;;;;;2.90;1.77;;;;;;;30.13;30.54;99963.34;1696823;84;21557;-67
2021/07/09 10:44:18;;;;;;;5.15;1.80;;;;;;;30.18;30.30;99963.62;1693929;84;21200;-67
2021/07/09 10:46:44;;;;;;;2.17;1.77;;;;;;;30.25;30.13;99956.54;1694255;84;21463;-67
2021/07/09 10:49:11;;;;;;;6.42;2.62;;;;;;;30.31;30.25;99957.69;1723049;82;21442;-66
2021/07/09 10:51:51;;;;;;;6.83;2.47;;;;;;;30.36;30.46;99957.99;1752314;80;21045;-66
2021/07/09 10:54:27;;;;;;;3.62;1.95;;;;;;;30.43;29.80;99952.22;1752375;80;21009;-66
2021/07/09 10:57:20;;;;;;;2.35;1.90;;;;;;;30.47;29.73;99958.90;1752361;80;21154;-66
2021/07/09 11:00:20;;;;;;;4.97;1.50;;;;;;;30.52;29.76;99960.55;1752593;82;28014;-67
2021/07/09 11:03:03;;;;;;;3.45;1.72;;;;;;;30.53;29.54;99951.48;1722561;82;21036;-67
2021/07/09 11:05:48;;;;;;;3.47;1.62;;;;;;;30.49;29.53;99939.42;1752638;82;21006;-66
2021/07/09 11:08:41;;;;;;;6.70;1.57;;;;;;;30.47;29.58;99945.48;1752811;82;20949;-65
2021/07/09 11:11:14;;;;;;;3.83;1.67;;;;;;;30.45;30.10;99940.80;1752329;80;21138;-65
2021/07/09 11:13:49;;;;;;;4.08;2.15;;;;;;;30.47;30.31;99939.60;1752077;82;20961;-65
2021/07/09 11:16:35;;;;;;;7.37;1.75;;;;;;;30.57;30.28;99935.38;1752292;82;21001;-67
2021/07/09 11:19:09;;;;;;;3.20;2.02;;;;;;;30.64;30.06;99941.67;1752739;80;20997;-65
2021/07/09 11:21:45;;;;;;;6.35;1.90;;;;;;;30.60;30.25;99930.95;1752429;80;21001;-65
2021/07/09 11:24:17;;;;;;;3.60;1.45;;;;;;;30.57;30.20;99927.32;1752742;82;21470;-65
2021/07/09 11:26:55;;;;;;;1.62;1.52;;;;;;;30.56;29.89;99910.89;1752394;80;21417;-66
2021/07/09 11:29:42;;;;;;;2.92;2.17;;;;;;;30.56;29.96;99913.57;1752160;82;20953;-66
2021/07/09 11:32:15;;;;;;;4.37;1.80;;;;;;;30.56;29.96;99911.39;1752276;82;21548;-66
2021/07/09 11:34:50;;;;;;;5.17;2.10;;;;;;;30.59;29.54;99908.31;1750142;81;20997;-66